sensor_id;sensor_type;location;lat;lon;timestamp;temperature;humidity
15656;DHT22;7928;43.614;1.456;2023-10-08T00:01:16;17.90;73.60
15656;DHT22;7928;43.614;1.456;2023-10-08T00:03:43;17.90;73.40
15656;DHT22;7928;43.614;1.456;2023-10-08T00:06:14;17.80;73.50
15656;DHT22;7928;43.614;1.456;2023-10-08T00:08:41;17.80;73.40
15656;DHT22;7928;43.614;1.456;2023-10-08T00:11:08;17.80;73.80
15656;DHT22;7928;43.614;1.456;2023-10-08T00:13:37;17.70;74.00
15656;DHT22;7928;43.614;1.456;2023-10-08T00:16:08;17.70;74.50
15656;DHT22;7928;43.614;1.456;2023-10-08T00:18:37;17.60;74.50
15656;DHT22;7928;43.614;1.456;2023-10-08T00:21:05;17.60;74.80
15656;DHT22;7928;43.614;1.456;2023-10-08T00:23:42;17.60;75.10
15656;DHT22;7928;43.614;1.456;2023-10-08T00:26:18;17.60;75.20
15656;DHT22;7928;43.614;1.456;2023-10-08T00:28:54;17.60;75.50
15656;DHT22;7928;43.614;1.456;2023-10-08T00:31:23;17.60;75.60
15656;DHT22;7928;43.614;1.456;2023-10-08T00:33:56;17.60;75.70
15656;DHT22;7928;43.614;1.456;2023-10-08T00:36:23;17.50;76.00
15656;DHT22;7928;43.614;1.456;2023-10-08T00:38:50;17.50;75.90
15656;DHT22;7928;43.614;1.456;2023-10-08T00:41:19;17.40;76.40
15656;DHT22;7928;43.614;1.456;2023-10-08T00:43:48;17.40;76.70
15656;DHT22;7928;43.614;1.456;2023-10-08T00:46:17;17.40;76.80
15656;DHT22;7928;43.614;1.456;2023-10-08T00:48:52;17.40;76.90
15656;DHT22;7928;43.614;1.456;2023-10-08T00:51:20;17.40;76.80
15656;DHT22;7928;43.614;1.456;2023-10-08T00:54:06;17.40;76.90
15656;DHT22;7928;43.614;1.456;2023-10-08T00:56:35;17.40;76.90
15656;DHT22;7928;43.614;1.456;2023-10-08T00:59:15;17.30;77.40
15656;DHT22;7928;43.614;1.456;2023-10-08T01:01:47;17.30;77.80
15656;DHT22;7928;43.614;1.456;2023-10-08T01:04:18;17.30;77.70
15656;DHT22;7928;43.614;1.456;2023-10-08T01:06:51;17.20;77.80
15656;DHT22;7928;43.614;1.456;2023-10-08T01:09:21;17.20;78.00
15656;DHT22;7928;43.614;1.456;2023-10-08T01:12:12;17.20;78.30
15656;DHT22;7928;43.614;1.456;2023-10-08T01:14:41;17.10;77.80
15656;DHT22;7928;43.614;1.456;2023-10-08T01:17:13;17.10;78.00
15656;DHT22;7928;43.614;1.456;2023-10-08T01:19:43;17.00;77.80
15656;DHT22;7928;43.614;1.456;2023-10-08T01:22:12;16.90;77.50
15656;DHT22;7928;43.614;1.456;2023-10-08T01:24:44;16.90;78.20
15656;DHT22;7928;43.614;1.456;2023-10-08T01:27:11;16.90;78.40
15656;DHT22;7928;43.614;1.456;2023-10-08T01:29:38;16.90;79.20
15656;DHT22;7928;43.614;1.456;2023-10-08T01:32:09;16.80;78.40
15656;DHT22;7928;43.614;1.456;2023-10-08T01:34:41;16.80;78.90
15656;DHT22;7928;43.614;1.456;2023-10-08T01:37:13;16.80;79.40
15656;DHT22;7928;43.614;1.456;2023-10-08T01:39:42;16.80;79.70
15656;DHT22;7928;43.614;1.456;2023-10-08T01:42:11;16.80;80.10
15656;DHT22;7928;43.614;1.456;2023-10-08T01:44:43;16.80;80.20
15656;DHT22;7928;43.614;1.456;2023-10-08T01:47:12;16.80;80.50
15656;DHT22;7928;43.614;1.456;2023-10-08T01:49:39;16.70;80.90
15656;DHT22;7928;43.614;1.456;2023-10-08T01:52:08;16.70;81.50
15656;DHT22;7928;43.614;1.456;2023-10-08T01:54:41;16.60;82.00
15656;DHT22;7928;43.614;1.456;2023-10-08T01:57:09;16.60;82.60
15656;DHT22;7928;43.614;1.456;2023-10-08T01:59:38;16.60;83.00
15656;DHT22;7928;43.614;1.456;2023-10-08T02:02:05;16.60;83.20
15656;DHT22;7928;43.614;1.456;2023-10-08T02:04:33;16.50;83.30
15656;DHT22;7928;43.614;1.456;2023-10-08T02:07:03;16.50;83.90
15656;DHT22;7928;43.614;1.456;2023-10-08T02:09:33;16.50;84.50
15656;DHT22;7928;43.614;1.456;2023-10-08T02:12:02;16.50;85.00
15656;DHT22;7928;43.614;1.456;2023-10-08T02:14:29;16.40;85.40
15656;DHT22;7928;43.614;1.456;2023-10-08T02:16:58;16.40;85.70
15656;DHT22;7928;43.614;1.456;2023-10-08T02:19:27;16.40;86.10
15656;DHT22;7928;43.614;1.456;2023-10-08T02:21:54;16.30;86.40
15656;DHT22;7928;43.614;1.456;2023-10-08T02:24:22;16.30;86.90
15656;DHT22;7928;43.614;1.456;2023-10-08T02:26:51;16.30;87.10
15656;DHT22;7928;43.614;1.456;2023-10-08T02:29:20;16.20;87.40
15656;DHT22;7928;43.614;1.456;2023-10-08T02:31:47;16.20;87.80
15656;DHT22;7928;43.614;1.456;2023-10-08T02:34:14;16.20;88.10
15656;DHT22;7928;43.614;1.456;2023-10-08T02:36:41;16.20;87.80
15656;DHT22;7928;43.614;1.456;2023-10-08T02:39:09;16.10;88.20
15656;DHT22;7928;43.614;1.456;2023-10-08T02:41:48;16.10;88.70
15656;DHT22;7928;43.614;1.456;2023-10-08T02:44:16;16.10;88.70
15656;DHT22;7928;43.614;1.456;2023-10-08T02:46:46;16.00;88.50
15656;DHT22;7928;43.614;1.456;2023-10-08T02:49:14;16.10;88.70
15656;DHT22;7928;43.614;1.456;2023-10-08T02:51:45;16.00;89.00
15656;DHT22;7928;43.614;1.456;2023-10-08T02:54:13;16.00;89.10
15656;DHT22;7928;43.614;1.456;2023-10-08T02:56:46;16.00;89.30
15656;DHT22;7928;43.614;1.456;2023-10-08T02:59:13;15.90;89.50
15656;DHT22;7928;43.614;1.456;2023-10-08T03:01:40;15.90;90.00
15656;DHT22;7928;43.614;1.456;2023-10-08T03:04:10;15.90;90.00
15656;DHT22;7928;43.614;1.456;2023-10-08T03:06:44;15.80;90.40
15656;DHT22;7928;43.614;1.456;2023-10-08T03:09:15;15.80;90.80
15656;DHT22;7928;43.614;1.456;2023-10-08T03:11:47;15.80;90.90
15656;DHT22;7928;43.614;1.456;2023-10-08T03:14:15;15.80;91.30
15656;DHT22;7928;43.614;1.456;2023-10-08T03:16:48;15.80;91.50
15656;DHT22;7928;43.614;1.456;2023-10-08T03:19:17;15.70;91.90
15656;DHT22;7928;43.614;1.456;2023-10-08T03:21:46;15.70;92.10
15656;DHT22;7928;43.614;1.456;2023-10-08T03:24:21;15.60;92.20
15656;DHT22;7928;43.614;1.456;2023-10-08T03:27:05;15.60;92.30
15656;DHT22;7928;43.614;1.456;2023-10-08T03:29:33;15.60;92.50
15656;DHT22;7928;43.614;1.456;2023-10-08T03:32:06;15.60;92.00
15656;DHT22;7928;43.614;1.456;2023-10-08T03:34:40;15.60;91.90
15656;DHT22;7928;43.614;1.456;2023-10-08T03:37:12;15.60;92.00
15656;DHT22;7928;43.614;1.456;2023-10-08T03:39:46;15.60;92.10
15656;DHT22;7928;43.614;1.456;2023-10-08T03:42:26;15.70;92.10
15656;DHT22;7928;43.614;1.456;2023-10-08T03:44:59;15.60;92.20
15656;DHT22;7928;43.614;1.456;2023-10-08T03:47:36;15.70;92.40
15656;DHT22;7928;43.614;1.456;2023-10-08T03:50:07;15.70;92.40
15656;DHT22;7928;43.614;1.456;2023-10-08T03:52:35;15.60;92.50
15656;DHT22;7928;43.614;1.456;2023-10-08T03:55:05;15.70;92.60
15656;DHT22;7928;43.614;1.456;2023-10-08T03:57:46;15.80;92.50
15656;DHT22;7928;43.614;1.456;2023-10-08T04:00:22;15.80;92.60
15656;DHT22;7928;43.614;1.456;2023-10-08T04:02:57;15.70;92.20
15656;DHT22;7928;43.614;1.456;2023-10-08T04:05:34;15.70;92.10
15656;DHT22;7928;43.614;1.456;2023-10-08T04:08:15;15.70;92.50
15656;DHT22;7928;43.614;1.456;2023-10-08T04:10:50;15.70;92.50
15656;DHT22;7928;43.614;1.456;2023-10-08T04:13:47;15.70;92.50
15656;DHT22;7928;43.614;1.456;2023-10-08T04:16:14;15.60;92.90
15656;DHT22;7928;43.614;1.456;2023-10-08T04:18:45;15.50;93.20
15656;DHT22;7928;43.614;1.456;2023-10-08T04:21:18;15.40;92.40
15656;DHT22;7928;43.614;1.456;2023-10-08T04:23:46;15.20;92.10
15656;DHT22;7928;43.614;1.456;2023-10-08T04:26:17;15.00;92.20
15656;DHT22;7928;43.614;1.456;2023-10-08T04:28:46;14.80;92.40
15656;DHT22;7928;43.614;1.456;2023-10-08T04:31:14;14.60;92.60
15656;DHT22;7928;43.614;1.456;2023-10-08T04:33:44;14.70;92.70
15656;DHT22;7928;43.614;1.456;2023-10-08T04:36:11;14.60;92.80
15656;DHT22;7928;43.614;1.456;2023-10-08T04:38:45;14.50;93.00
15656;DHT22;7928;43.614;1.456;2023-10-08T04:41:14;14.50;93.20
15656;DHT22;7928;43.614;1.456;2023-10-08T04:43:45;14.50;93.50
15656;DHT22;7928;43.614;1.456;2023-10-08T04:46:15;14.40;93.70
15656;DHT22;7928;43.614;1.456;2023-10-08T04:49:12;14.50;94.00
15656;DHT22;7928;43.614;1.456;2023-10-08T04:51:52;14.40;94.10
15656;DHT22;7928;43.614;1.456;2023-10-08T04:54:24;14.40;94.40
15656;DHT22;7928;43.614;1.456;2023-10-08T04:56:56;14.50;94.50
15656;DHT22;7928;43.614;1.456;2023-10-08T04:59:24;14.50;94.50
15656;DHT22;7928;43.614;1.456;2023-10-08T05:01:58;14.50;94.70
15656;DHT22;7928;43.614;1.456;2023-10-08T05:04:47;14.40;95.00
15656;DHT22;7928;43.614;1.456;2023-10-08T05:07:44;14.50;95.30
15656;DHT22;7928;43.614;1.456;2023-10-08T05:10:30;14.50;95.50
15656;DHT22;7928;43.614;1.456;2023-10-08T05:13:10;14.50;95.70
15656;DHT22;7928;43.614;1.456;2023-10-08T05:15:42;14.50;95.80
15656;DHT22;7928;43.614;1.456;2023-10-08T05:18:28;14.60;95.80
15656;DHT22;7928;43.614;1.456;2023-10-08T05:21:20;14.70;95.90
15656;DHT22;7928;43.614;1.456;2023-10-08T05:23:54;14.70;95.90
15656;DHT22;7928;43.614;1.456;2023-10-08T05:26:39;14.80;96.00
15656;DHT22;7928;43.614;1.456;2023-10-08T05:29:14;14.90;95.90
15656;DHT22;7928;43.614;1.456;2023-10-08T05:32:10;14.90;95.80
15656;DHT22;7928;43.614;1.456;2023-10-08T05:34:55;14.90;95.90
15656;DHT22;7928;43.614;1.456;2023-10-08T05:37:43;15.00;96.00
15656;DHT22;7928;43.614;1.456;2023-10-08T05:40:13;14.90;96.10
15656;DHT22;7928;43.614;1.456;2023-10-08T05:43:09;15.00;96.40
15656;DHT22;7928;43.614;1.456;2023-10-08T05:45:48;15.00;96.60
15656;DHT22;7928;43.614;1.456;2023-10-08T05:48:39;15.00;96.70
15656;DHT22;7928;43.614;1.456;2023-10-08T05:51:11;14.90;96.70
15656;DHT22;7928;43.614;1.456;2023-10-08T05:53:49;14.80;96.90
15656;DHT22;7928;43.614;1.456;2023-10-08T05:56:21;14.70;96.90
15656;DHT22;7928;43.614;1.456;2023-10-08T05:59:07;14.60;97.10
15656;DHT22;7928;43.614;1.456;2023-10-08T06:01:44;14.50;97.30
15656;DHT22;7928;43.614;1.456;2023-10-08T06:04:12;14.60;97.40
15656;DHT22;7928;43.614;1.456;2023-10-08T06:07:07;14.60;97.50
15656;DHT22;7928;43.614;1.456;2023-10-08T06:09:42;14.70;97.60
15656;DHT22;7928;43.614;1.456;2023-10-08T06:12:16;14.60;97.70
15656;DHT22;7928;43.614;1.456;2023-10-08T06:14:57;14.80;98.00
15656;DHT22;7928;43.614;1.456;2023-10-08T06:17:43;14.70;98.40
15656;DHT22;7928;43.614;1.456;2023-10-08T06:20:29;14.80;98.90
15656;DHT22;7928;43.614;1.456;2023-10-08T06:22:55;14.80;99.50
15656;DHT22;7928;43.614;1.456;2023-10-08T06:25:29;14.80;99.90
15656;DHT22;7928;43.614;1.456;2023-10-08T06:27:56;14.70;99.90
15656;DHT22;7928;43.614;1.456;2023-10-08T06:30:25;14.70;99.90
15656;DHT22;7928;43.614;1.456;2023-10-08T06:32:56;14.70;99.90
15656;DHT22;7928;43.614;1.456;2023-10-08T06:35:23;14.80;99.90
15656;DHT22;7928;43.614;1.456;2023-10-08T06:37:54;14.80;99.90
15656;DHT22;7928;43.614;1.456;2023-10-08T06:40:27;14.90;99.90
15656;DHT22;7928;43.614;1.456;2023-10-08T06:43:06;15.00;99.90
15656;DHT22;7928;43.614;1.456;2023-10-08T06:45:42;15.00;99.90
15656;DHT22;7928;43.614;1.456;2023-10-08T06:48:10;14.90;99.90
15656;DHT22;7928;43.614;1.456;2023-10-08T06:50:44;15.00;99.90
15656;DHT22;7928;43.614;1.456;2023-10-08T06:53:11;15.00;99.90
15656;DHT22;7928;43.614;1.456;2023-10-08T06:55:40;15.00;99.90
15656;DHT22;7928;43.614;1.456;2023-10-08T06:58:07;15.00;99.90
15656;DHT22;7928;43.614;1.456;2023-10-08T07:00:35;15.10;99.90
15656;DHT22;7928;43.614;1.456;2023-10-08T07:03:10;15.10;99.90
15656;DHT22;7928;43.614;1.456;2023-10-08T07:05:40;15.20;99.90
15656;DHT22;7928;43.614;1.456;2023-10-08T07:08:10;15.20;99.90
15656;DHT22;7928;43.614;1.456;2023-10-08T07:10:40;15.20;99.90
15656;DHT22;7928;43.614;1.456;2023-10-08T07:13:08;15.30;99.90
15656;DHT22;7928;43.614;1.456;2023-10-08T07:15:36;15.40;99.90
15656;DHT22;7928;43.614;1.456;2023-10-08T07:18:06;15.50;99.90
15656;DHT22;7928;43.614;1.456;2023-10-08T07:20:43;15.50;99.90
15656;DHT22;7928;43.614;1.456;2023-10-08T07:23:11;15.60;99.90
15656;DHT22;7928;43.614;1.456;2023-10-08T07:25:52;15.80;99.90
15656;DHT22;7928;43.614;1.456;2023-10-08T07:28:23;15.90;99.90
15656;DHT22;7928;43.614;1.456;2023-10-08T07:30:51;16.00;99.90
15656;DHT22;7928;43.614;1.456;2023-10-08T07:33:18;16.10;99.90
15656;DHT22;7928;43.614;1.456;2023-10-08T07:35:47;16.30;99.90
15656;DHT22;7928;43.614;1.456;2023-10-08T07:38:26;16.40;99.90
15656;DHT22;7928;43.614;1.456;2023-10-08T07:40:55;16.50;99.90
15656;DHT22;7928;43.614;1.456;2023-10-08T07:43:23;16.80;99.90
15656;DHT22;7928;43.614;1.456;2023-10-08T07:45:50;17.00;99.90
15656;DHT22;7928;43.614;1.456;2023-10-08T07:48:20;17.10;99.90
15656;DHT22;7928;43.614;1.456;2023-10-08T07:50:49;17.30;99.90
15656;DHT22;7928;43.614;1.456;2023-10-08T07:53:17;17.40;99.90
15656;DHT22;7928;43.614;1.456;2023-10-08T07:55:46;17.40;99.90
15656;DHT22;7928;43.614;1.456;2023-10-08T07:58:15;17.50;99.90
15656;DHT22;7928;43.614;1.456;2023-10-08T08:00:43;17.60;99.90
15656;DHT22;7928;43.614;1.456;2023-10-08T08:03:20;17.70;99.90
15656;DHT22;7928;43.614;1.456;2023-10-08T08:05:49;17.80;99.90
15656;DHT22;7928;43.614;1.456;2023-10-08T08:08:22;17.90;99.90
15656;DHT22;7928;43.614;1.456;2023-10-08T08:10:52;18.10;99.90
15656;DHT22;7928;43.614;1.456;2023-10-08T08:13:24;18.20;99.90
15656;DHT22;7928;43.614;1.456;2023-10-08T08:15:54;18.40;99.90
15656;DHT22;7928;43.614;1.456;2023-10-08T08:18:25;18.50;99.90
15656;DHT22;7928;43.614;1.456;2023-10-08T08:21:00;18.70;99.90
15656;DHT22;7928;43.614;1.456;2023-10-08T08:23:29;18.70;99.90
15656;DHT22;7928;43.614;1.456;2023-10-08T08:25:56;18.80;99.90
15656;DHT22;7928;43.614;1.456;2023-10-08T08:28:37;19.00;99.90
15656;DHT22;7928;43.614;1.456;2023-10-08T08:31:05;19.10;99.90
15656;DHT22;7928;43.614;1.456;2023-10-08T08:33:39;19.20;99.90
15656;DHT22;7928;43.614;1.456;2023-10-08T08:36:20;19.20;99.90
15656;DHT22;7928;43.614;1.456;2023-10-08T08:38:48;19.30;99.90
15656;DHT22;7928;43.614;1.456;2023-10-08T08:41:15;19.30;99.80
15656;DHT22;7928;43.614;1.456;2023-10-08T08:43:49;19.30;99.60
15656;DHT22;7928;43.614;1.456;2023-10-08T08:46:27;19.30;99.40
15656;DHT22;7928;43.614;1.456;2023-10-08T08:48:55;19.40;99.30
15656;DHT22;7928;43.614;1.456;2023-10-08T08:51:26;19.40;99.60
15656;DHT22;7928;43.614;1.456;2023-10-08T08:53:55;19.40;99.30
15656;DHT22;7928;43.614;1.456;2023-10-08T08:56:26;19.30;99.30
15656;DHT22;7928;43.614;1.456;2023-10-08T08:58:55;19.30;99.30
15656;DHT22;7928;43.614;1.456;2023-10-08T09:01:25;19.50;99.30
15656;DHT22;7928;43.614;1.456;2023-10-08T09:03:58;19.70;99.20
15656;DHT22;7928;43.614;1.456;2023-10-08T09:06:28;19.90;98.80
15656;DHT22;7928;43.614;1.456;2023-10-08T09:08:54;20.10;98.70
15656;DHT22;7928;43.614;1.456;2023-10-08T09:11:40;20.30;98.30
15656;DHT22;7928;43.614;1.456;2023-10-08T09:14:08;20.50;98.20
15656;DHT22;7928;43.614;1.456;2023-10-08T09:16:37;20.70;97.90
15656;DHT22;7928;43.614;1.456;2023-10-08T09:19:04;20.90;97.70
15656;DHT22;7928;43.614;1.456;2023-10-08T09:21:38;21.10;97.30
15656;DHT22;7928;43.614;1.456;2023-10-08T09:24:06;21.30;97.10
15656;DHT22;7928;43.614;1.456;2023-10-08T09:26:36;21.40;96.90
15656;DHT22;7928;43.614;1.456;2023-10-08T09:29:05;21.60;96.70
15656;DHT22;7928;43.614;1.456;2023-10-08T09:31:34;21.80;96.40
15656;DHT22;7928;43.614;1.456;2023-10-08T09:34:03;22.00;96.20
15656;DHT22;7928;43.614;1.456;2023-10-08T09:36:31;22.20;95.60
15656;DHT22;7928;43.614;1.456;2023-10-08T09:39:01;22.50;95.40
15656;DHT22;7928;43.614;1.456;2023-10-08T09:41:31;22.90;92.50
15656;DHT22;7928;43.614;1.456;2023-10-08T09:43:58;23.30;90.80
15656;DHT22;7928;43.614;1.456;2023-10-08T09:46:29;23.60;90.00
15656;DHT22;7928;43.614;1.456;2023-10-08T09:48:59;24.00;87.90
15656;DHT22;7928;43.614;1.456;2023-10-08T09:51:29;24.30;84.20
15656;DHT22;7928;43.614;1.456;2023-10-08T09:54:05;24.70;83.50
15656;DHT22;7928;43.614;1.456;2023-10-08T09:56:36;25.20;82.70
15656;DHT22;7928;43.614;1.456;2023-10-08T09:59:05;25.70;80.70
15656;DHT22;7928;43.614;1.456;2023-10-08T10:01:35;26.20;78.70
15656;DHT22;7928;43.614;1.456;2023-10-08T10:04:06;27.50;76.10
15656;DHT22;7928;43.614;1.456;2023-10-08T10:06:33;29.20;69.70
15656;DHT22;7928;43.614;1.456;2023-10-08T10:09:02;29.60;67.70
15656;DHT22;7928;43.614;1.456;2023-10-08T10:11:35;30.50;65.40
15656;DHT22;7928;43.614;1.456;2023-10-08T10:14:03;30.90;63.40
15656;DHT22;7928;43.614;1.456;2023-10-08T10:16:32;32.20;61.40
15656;DHT22;7928;43.614;1.456;2023-10-08T10:19:02;33.10;59.50
15656;DHT22;7928;43.614;1.456;2023-10-08T10:21:31;33.60;58.50
15656;DHT22;7928;43.614;1.456;2023-10-08T10:23:59;34.10;57.20
15656;DHT22;7928;43.614;1.456;2023-10-08T10:26:27;35.10;56.60
15656;DHT22;7928;43.614;1.456;2023-10-08T10:29:19;35.00;55.50
15656;DHT22;7928;43.614;1.456;2023-10-08T10:31:47;34.90;54.90
15656;DHT22;7928;43.614;1.456;2023-10-08T10:34:17;35.60;54.40
15656;DHT22;7928;43.614;1.456;2023-10-08T10:36:45;35.70;53.40
15656;DHT22;7928;43.614;1.456;2023-10-08T10:39:14;34.10;54.80
15656;DHT22;7928;43.614;1.456;2023-10-08T10:41:43;33.20;55.00
15656;DHT22;7928;43.614;1.456;2023-10-08T10:44:11;33.00;56.20
15656;DHT22;7928;43.614;1.456;2023-10-08T10:46:41;34.30;54.40
15656;DHT22;7928;43.614;1.456;2023-10-08T10:49:09;34.80;52.90
15656;DHT22;7928;43.614;1.456;2023-10-08T10:51:45;35.50;52.30
15656;DHT22;7928;43.614;1.456;2023-10-08T10:54:13;35.80;52.30
15656;DHT22;7928;43.614;1.456;2023-10-08T10:56:46;36.50;51.60
15656;DHT22;7928;43.614;1.456;2023-10-08T10:59:14;36.80;50.40
15656;DHT22;7928;43.614;1.456;2023-10-08T11:01:47;35.50;51.30
15656;DHT22;7928;43.614;1.456;2023-10-08T11:04:18;35.40;51.10
15656;DHT22;7928;43.614;1.456;2023-10-08T11:06:50;36.20;51.20
15656;DHT22;7928;43.614;1.456;2023-10-08T11:09:22;37.00;50.40
15656;DHT22;7928;43.614;1.456;2023-10-08T11:12:02;37.60;49.60
15656;DHT22;7928;43.614;1.456;2023-10-08T11:14:37;36.90;49.70
15656;DHT22;7928;43.614;1.456;2023-10-08T11:17:11;37.10;49.70
15656;DHT22;7928;43.614;1.456;2023-10-08T11:19:39;37.20;49.60
15656;DHT22;7928;43.614;1.456;2023-10-08T11:22:08;37.30;48.80
15656;DHT22;7928;43.614;1.456;2023-10-08T11:24:42;36.90;49.40
15656;DHT22;7928;43.614;1.456;2023-10-08T11:27:13;37.10;49.80
15656;DHT22;7928;43.614;1.456;2023-10-08T11:29:54;38.30;48.90
15656;DHT22;7928;43.614;1.456;2023-10-08T11:32:25;39.30;47.90
15656;DHT22;7928;43.614;1.456;2023-10-08T11:34:55;39.50;47.20
15656;DHT22;7928;43.614;1.456;2023-10-08T11:37:27;39.70;47.60
15656;DHT22;7928;43.614;1.456;2023-10-08T11:39:55;39.60;47.20
15656;DHT22;7928;43.614;1.456;2023-10-08T11:42:24;39.60;47.20
15656;DHT22;7928;43.614;1.456;2023-10-08T11:45:10;39.10;47.00
15656;DHT22;7928;43.614;1.456;2023-10-08T11:47:51;39.40;46.60
15656;DHT22;7928;43.614;1.456;2023-10-08T11:50:25;38.70;46.20
15656;DHT22;7928;43.614;1.456;2023-10-08T11:52:58;38.80;46.50
15656;DHT22;7928;43.614;1.456;2023-10-08T11:55:29;38.60;46.50
15656;DHT22;7928;43.614;1.456;2023-10-08T11:58:00;38.50;46.30
15656;DHT22;7928;43.614;1.456;2023-10-08T12:00:35;37.80;46.80
15656;DHT22;7928;43.614;1.456;2023-10-08T12:03:11;38.50;46.70
15656;DHT22;7928;43.614;1.456;2023-10-08T12:05:38;39.00;46.00
15656;DHT22;7928;43.614;1.456;2023-10-08T12:08:13;39.60;46.00
15656;DHT22;7928;43.614;1.456;2023-10-08T12:10:42;40.40;45.40
15656;DHT22;7928;43.614;1.456;2023-10-08T12:13:12;39.90;44.50
15656;DHT22;7928;43.614;1.456;2023-10-08T12:15:39;38.50;45.50
15656;DHT22;7928;43.614;1.456;2023-10-08T12:18:07;38.70;46.00
15656;DHT22;7928;43.614;1.456;2023-10-08T12:20:42;38.40;45.40
15656;DHT22;7928;43.614;1.456;2023-10-08T12:23:13;38.40;45.40
15656;DHT22;7928;43.614;1.456;2023-10-08T12:25:50;39.50;45.00
15656;DHT22;7928;43.614;1.456;2023-10-08T12:28:18;39.40;44.30
15656;DHT22;7928;43.614;1.456;2023-10-08T12:30:45;39.60;44.60
15656;DHT22;7928;43.614;1.456;2023-10-08T12:33:14;40.50;44.20
15656;DHT22;7928;43.614;1.456;2023-10-08T12:35:44;39.50;43.80
15656;DHT22;7928;43.614;1.456;2023-10-08T12:38:11;39.80;44.30
15656;DHT22;7928;43.614;1.456;2023-10-08T12:40:39;40.10;44.20
15656;DHT22;7928;43.614;1.456;2023-10-08T12:43:13;40.50;44.10
15656;DHT22;7928;43.614;1.456;2023-10-08T12:45:45;40.70;43.70
15656;DHT22;7928;43.614;1.456;2023-10-08T12:48:18;40.90;43.40
15656;DHT22;7928;43.614;1.456;2023-10-08T12:50:47;40.70;42.50
15656;DHT22;7928;43.614;1.456;2023-10-08T12:53:20;39.90;43.10
15656;DHT22;7928;43.614;1.456;2023-10-08T12:55:53;40.30;43.10
15656;DHT22;7928;43.614;1.456;2023-10-08T12:58:21;40.60;43.00
15656;DHT22;7928;43.614;1.456;2023-10-08T13:00:52;40.80;41.80
15656;DHT22;7928;43.614;1.456;2023-10-08T13:03:24;39.70;42.40
15656;DHT22;7928;43.614;1.456;2023-10-08T13:05:53;40.10;41.90
15656;DHT22;7928;43.614;1.456;2023-10-08T13:08:20;40.00;42.30
15656;DHT22;7928;43.614;1.456;2023-10-08T13:10:47;40.60;42.80
15656;DHT22;7928;43.614;1.456;2023-10-08T13:13:14;40.90;42.00
15656;DHT22;7928;43.614;1.456;2023-10-08T13:15:44;40.50;42.40
15656;DHT22;7928;43.614;1.456;2023-10-08T13:18:11;41.30;42.20
15656;DHT22;7928;43.614;1.456;2023-10-08T13:20:38;41.30;42.20
15656;DHT22;7928;43.614;1.456;2023-10-08T13:23:08;42.10;42.40
15656;DHT22;7928;43.614;1.456;2023-10-08T13:25:36;42.00;41.70
15656;DHT22;7928;43.614;1.456;2023-10-08T13:28:05;41.30;41.70
15656;DHT22;7928;43.614;1.456;2023-10-08T13:30:35;40.30;42.40
15656;DHT22;7928;43.614;1.456;2023-10-08T13:33:03;40.90;42.40
15656;DHT22;7928;43.614;1.456;2023-10-08T13:35:29;41.40;42.00
15656;DHT22;7928;43.614;1.456;2023-10-08T13:37:59;40.70;41.90
15656;DHT22;7928;43.614;1.456;2023-10-08T13:40:33;41.70;42.40
15656;DHT22;7928;43.614;1.456;2023-10-08T13:43:05;42.00;41.10
15656;DHT22;7928;43.614;1.456;2023-10-08T13:45:32;40.90;41.50
15656;DHT22;7928;43.614;1.456;2023-10-08T13:48:03;41.30;41.60
15656;DHT22;7928;43.614;1.456;2023-10-08T13:50:31;41.80;41.30
15656;DHT22;7928;43.614;1.456;2023-10-08T13:52:58;41.80;41.20
15656;DHT22;7928;43.614;1.456;2023-10-08T13:55:25;41.70;40.80
15656;DHT22;7928;43.614;1.456;2023-10-08T13:57:53;42.20;41.30
15656;DHT22;7928;43.614;1.456;2023-10-08T14:00:21;42.00;39.80
15656;DHT22;7928;43.614;1.456;2023-10-08T14:02:51;42.20;40.20
15656;DHT22;7928;43.614;1.456;2023-10-08T14:05:18;43.20;39.60
15656;DHT22;7928;43.614;1.456;2023-10-08T14:07:50;42.70;39.70
15656;DHT22;7928;43.614;1.456;2023-10-08T14:10:18;43.10;39.90
15656;DHT22;7928;43.614;1.456;2023-10-08T14:12:46;43.50;39.20
15656;DHT22;7928;43.614;1.456;2023-10-08T14:15:16;43.40;39.30
15656;DHT22;7928;43.614;1.456;2023-10-08T14:17:44;43.50;39.70
15656;DHT22;7928;43.614;1.456;2023-10-08T14:20:14;44.10;38.70
15656;DHT22;7928;43.614;1.456;2023-10-08T14:22:47;44.00;39.10
15656;DHT22;7928;43.614;1.456;2023-10-08T14:25:25;43.30;38.60
15656;DHT22;7928;43.614;1.456;2023-10-08T14:27:54;42.70;38.00
15656;DHT22;7928;43.614;1.456;2023-10-08T14:30:31;42.30;38.70
15656;DHT22;7928;43.614;1.456;2023-10-08T14:33:01;43.00;38.40
15656;DHT22;7928;43.614;1.456;2023-10-08T14:35:29;43.30;38.60
15656;DHT22;7928;43.614;1.456;2023-10-08T14:38:14;43.70;39.00
15656;DHT22;7928;43.614;1.456;2023-10-08T14:40:58;43.70;38.10
15656;DHT22;7928;43.614;1.456;2023-10-08T14:43:42;43.60;38.00
15656;DHT22;7928;43.614;1.456;2023-10-08T14:46:11;44.40;38.60
15656;DHT22;7928;43.614;1.456;2023-10-08T14:48:40;44.50;37.80
15656;DHT22;7928;43.614;1.456;2023-10-08T14:51:07;44.80;37.60
15656;DHT22;7928;43.614;1.456;2023-10-08T14:53:41;42.70;37.50
15656;DHT22;7928;43.614;1.456;2023-10-08T14:56:08;43.00;39.00
15656;DHT22;7928;43.614;1.456;2023-10-08T14:58:35;43.00;38.00
15656;DHT22;7928;43.614;1.456;2023-10-08T15:01:02;43.60;38.30
15656;DHT22;7928;43.614;1.456;2023-10-08T15:03:31;43.80;38.30
15656;DHT22;7928;43.614;1.456;2023-10-08T15:05:57;44.30;37.90
15656;DHT22;7928;43.614;1.456;2023-10-08T15:08:24;44.30;37.40
15656;DHT22;7928;43.614;1.456;2023-10-08T15:10:52;44.30;38.10
15656;DHT22;7928;43.614;1.456;2023-10-08T15:13:19;43.60;37.80
15656;DHT22;7928;43.614;1.456;2023-10-08T15:15:46;43.80;38.30
15656;DHT22;7928;43.614;1.456;2023-10-08T15:18:15;43.70;37.80
15656;DHT22;7928;43.614;1.456;2023-10-08T15:20:45;43.00;37.80
15656;DHT22;7928;43.614;1.456;2023-10-08T15:23:12;42.60;38.50
15656;DHT22;7928;43.614;1.456;2023-10-08T15:25:39;42.30;38.30
15656;DHT22;7928;43.614;1.456;2023-10-08T15:28:07;42.10;38.20
15656;DHT22;7928;43.614;1.456;2023-10-08T15:30:34;41.70;38.40
15656;DHT22;7928;43.614;1.456;2023-10-08T15:33:01;41.60;38.20
15656;DHT22;7928;43.614;1.456;2023-10-08T15:35:28;40.80;38.30
15656;DHT22;7928;43.614;1.456;2023-10-08T15:37:56;40.30;38.60
15656;DHT22;7928;43.614;1.456;2023-10-08T15:40:23;40.00;39.40
15656;DHT22;7928;43.614;1.456;2023-10-08T15:42:52;39.50;39.30
15656;DHT22;7928;43.614;1.456;2023-10-08T15:45:19;39.10;39.00
15656;DHT22;7928;43.614;1.456;2023-10-08T15:47:47;38.30;39.80
15656;DHT22;7928;43.614;1.456;2023-10-08T15:50:14;38.40;40.10
15656;DHT22;7928;43.614;1.456;2023-10-08T15:52:42;37.90;40.10
15656;DHT22;7928;43.614;1.456;2023-10-08T15:55:10;37.20;40.70
15656;DHT22;7928;43.614;1.456;2023-10-08T15:57:37;36.80;40.80
15656;DHT22;7928;43.614;1.456;2023-10-08T16:00:06;36.70;40.90
15656;DHT22;7928;43.614;1.456;2023-10-08T16:02:33;36.50;41.00
15656;DHT22;7928;43.614;1.456;2023-10-08T16:05:00;36.40;41.30
15656;DHT22;7928;43.614;1.456;2023-10-08T16:07:28;36.50;42.00
15656;DHT22;7928;43.614;1.456;2023-10-08T16:09:56;36.40;41.60
15656;DHT22;7928;43.614;1.456;2023-10-08T16:12:25;36.30;41.70